createdAt,value
2019-04-07T00:03:30.305Z,98733.16
2019-04-07T00:07:40.189Z,98734.59
2019-04-07T00:11:47.029Z,98738.05
2019-04-07T00:15:53.760Z,98732.27
2019-04-07T00:20:00.677Z,98731.52
2019-04-07T00:24:07.468Z,98734.98
2019-04-07T00:28:19.643Z,98728.36
2019-04-07T00:32:26.453Z,98735.80
2019-04-07T00:36:33.157Z,98734.98
2019-04-07T00:40:40.393Z,98737.34
2019-04-07T00:44:47.474Z,98737.84
2019-04-07T00:48:55.123Z,98740.25
2019-04-07T00:53:01.753Z,98739.30
2019-04-07T00:57:08.529Z,98739.55
2019-04-07T01:01:17.986Z,98740.02
2019-04-07T01:05:35.477Z,98733.56
2019-04-07T01:09:33.081Z,98737.02
2019-04-07T01:13:40.106Z,98746.81
2019-04-07T01:17:47.273Z,98749.69
2019-04-07T01:21:55.731Z,98744.63
2019-04-07T01:26:03.234Z,98747.54
2019-04-07T01:30:10.837Z,98748.53
2019-04-07T01:34:17.563Z,98750.36
2019-04-07T01:38:24.281Z,98758.61
2019-04-07T01:42:53.894Z,98754.80
2019-04-07T01:47:15.678Z,98751.80
2019-04-07T01:51:59.626Z,98746.14
2019-04-07T01:56:12.191Z,98739.36
2019-04-07T02:00:34.282Z,98742.42
2019-04-07T02:04:50.080Z,98748.66
2019-04-07T02:09:12.521Z,98753.85
2019-04-07T02:13:45.096Z,98757.00
2019-04-07T02:18:02.476Z,98753.45
2019-04-07T02:22:22.314Z,98754.10
2019-04-07T02:26:47.771Z,98754.81
2019-04-07T02:31:17.035Z,98753.20
2019-04-07T02:35:46.538Z,98755.52
2019-04-07T02:40:11.818Z,98754.38
2019-04-07T02:44:33.669Z,98751.34
2019-04-07T02:48:59.355Z,98744.34
2019-04-07T02:53:43.646Z,98745.39
2019-04-07T02:58:08.750Z,98749.83
2019-04-07T03:02:34.693Z,98749.72
2019-04-07T03:06:53.464Z,98756.25
2019-04-07T03:11:22.390Z,98761.52
2019-04-07T03:16:00.833Z,98760.89
2019-04-07T03:20:33.174Z,98767.70
2019-04-07T03:24:51.819Z,98764.83
2019-04-07T03:29:08.554Z,98765.70
2019-04-07T03:33:30.110Z,98771.98
2019-04-07T03:38:04.696Z,98766.13
2019-04-07T03:42:34.164Z,98769.02
2019-04-07T03:46:49.498Z,98764.45
2019-04-07T03:51:03.267Z,98769.64
2019-04-07T03:55:21.939Z,98765.86
2019-04-07T03:59:57.820Z,98766.84
2019-04-07T04:04:24.627Z,98768.13
2019-04-07T04:08:49.027Z,98773.11
2019-04-07T04:13:17.754Z,98777.08
2019-04-07T04:17:25.130Z,98771.91
2019-04-07T04:21:32.862Z,98774.52
2019-04-07T04:25:40.703Z,98772.16
2019-04-07T04:29:50.782Z,98772.45
2019-04-07T04:33:56.058Z,98773.09
2019-04-07T04:38:03.781Z,98782.52
2019-04-07T04:42:11.503Z,98784.65
2019-04-07T04:46:18.640Z,98783.77
2019-04-07T04:50:25.808Z,98786.38
2019-04-07T04:54:33.367Z,98780.48
2019-04-07T04:58:40.206Z,98790.34
2019-04-07T05:02:46.946Z,98782.53
2019-04-07T05:06:53.718Z,98796.64
2019-04-07T05:11:00.873Z,98796.72
2019-04-07T05:15:09.701Z,98802.77
2019-04-07T05:19:16.347Z,98802.95
2019-04-07T05:23:23.125Z,98811.01
2019-04-07T05:27:30.216Z,98808.48
2019-04-07T05:31:37.058Z,98804.80
2019-04-07T05:35:44.135Z,98818.63
2019-04-07T05:39:51.586Z,98818.63
2019-04-07T05:43:58.318Z,98818.44
2019-04-07T05:48:05.448Z,98825.86
2019-04-07T05:52:14.094Z,98823.73
2019-04-07T05:56:21.409Z,98840.55
2019-04-07T06:00:31.184Z,98842.87
2019-04-07T06:04:37.933Z,98849.61
2019-04-07T06:08:46.976Z,98858.08
2019-04-07T06:12:53.197Z,98857.30
2019-04-07T06:17:00.018Z,98864.67
2019-04-07T06:21:07.748Z,98860.09
2019-04-07T06:25:14.738Z,98859.14
2019-04-07T06:29:24.686Z,98865.46
2019-04-07T06:33:30.501Z,98862.77
2019-04-07T06:37:37.685Z,98867.17
2019-04-07T06:41:44.577Z,98856.75
2019-04-07T06:46:19.638Z,98869.50
2019-04-07T06:50:47.397Z,98875.70
2019-04-07T06:55:15.740Z,98881.16
2019-04-07T06:59:33.998Z,98882.38
2019-04-07T07:03:58.611Z,98881.66
2019-04-07T07:08:22.218Z,98880.52
2019-04-07T07:12:39.880Z,98887.61
2019-04-07T07:17:05.350Z,98884.07
2019-04-07T07:21:24.141Z,98882.78
2019-04-07T07:25:32.158Z,98889.20
2019-04-07T07:29:39.869Z,98883.66
2019-04-07T07:33:46.709Z,98888.50
2019-04-07T07:37:58.117Z,98895.81
2019-04-07T07:42:02.942Z,98897.66
2019-04-07T07:46:09.915Z,98898.59
2019-04-07T07:50:16.974Z,98901.06
2019-04-07T07:54:27.681Z,98901.10
2019-04-07T07:58:33.625Z,98906.30
2019-04-07T08:02:41.058Z,98904.42
2019-04-07T08:06:50.101Z,98911.39
2019-04-07T08:10:59.749Z,98911.46
2019-04-07T08:15:05.981Z,98915.25
2019-04-07T08:19:13.516Z,98917.18
2019-04-07T08:23:20.970Z,98915.58
2019-04-07T08:27:32.062Z,98909.22
2019-04-07T08:31:39.373Z,98910.73
2019-04-07T08:35:46.889Z,98912.02
2019-04-07T08:39:56.530Z,98917.19
2019-04-07T08:44:02.887Z,98914.59
2019-04-07T08:48:09.776Z,98922.43
2019-04-07T08:52:17.401Z,98925.90
2019-04-07T08:56:26.465Z,98932.88
2019-04-07T09:00:34.589Z,98928.02
2019-04-07T09:04:41.421Z,98937.23
2019-04-07T09:08:48.425Z,98926.77
2019-04-07T09:12:59.492Z,98937.39
2019-04-07T09:17:30.865Z,98936.39
2019-04-07T09:21:41.248Z,98934.84
2019-04-07T09:26:24.168Z,98936.55
2019-04-07T09:30:49.041Z,98924.50
2019-04-07T09:35:22.874Z,98934.11
2019-04-07T09:40:04.258Z,98931.84
2019-04-07T09:44:36.587Z,98926.36
2019-04-07T09:48:59.963Z,98928.59
2019-04-07T09:53:18.888Z,98933.29
2019-04-07T09:57:38.698Z,98931.92
2019-04-07T10:02:06.445Z,98931.70
2019-04-07T10:06:39.122Z,98931.85
2019-04-07T10:11:16.006Z,98927.11
2019-04-07T10:15:33.808Z,98927.59
2019-04-07T10:19:58.799Z,98926.61
2019-04-07T10:24:24.637Z,98919.35
2019-04-07T10:28:43.031Z,98921.23
2019-04-07T10:33:08.872Z,98919.72
2019-04-07T10:37:32.231Z,98923.89
2019-04-07T10:41:58.867Z,98921.44
2019-04-07T10:46:23.448Z,98922.33
2019-04-07T10:50:49.190Z,98914.86
2019-04-07T10:55:12.007Z,98919.01
2019-04-07T10:59:37.654Z,98929.83
2019-04-07T11:04:15.872Z,98920.81
2019-04-07T11:08:47.868Z,98912.14
2019-04-07T11:13:14.606Z,98920.70
2019-04-07T11:17:40.847Z,98922.70
2019-04-07T11:22:04.711Z,98907.31
2019-04-07T11:26:19.678Z,98920.89
2019-04-07T11:30:40.934Z,98919.84
2019-04-07T11:34:58.428Z,98926.33
2019-04-07T11:39:27.437Z,98915.40
2019-04-07T11:43:42.435Z,98915.88
2019-04-07T11:47:59.150Z,98917.92
2019-04-07T11:52:11.491Z,98911.36
2019-04-07T11:56:40.015Z,98919.86
2019-04-07T12:01:12.797Z,98920.76
2019-04-07T12:05:39.875Z,98918.17
2019-04-07T12:10:06.503Z,98923.20
2019-04-07T12:14:22.968Z,98924.42
2019-04-07T12:18:50.188Z,98911.74
2019-04-07T12:23:11.178Z,98916.53
2019-04-07T12:27:32.006Z,98904.44
2019-04-07T12:32:02.479Z,98896.55
2019-04-07T12:36:26.694Z,98904.34
2019-04-07T12:40:45.277Z,98901.97
2019-04-07T12:45:19.200Z,98901.53
2019-04-07T12:49:44.491Z,98893.66
2019-04-07T12:54:08.975Z,98893.66
2019-04-07T12:58:41.194Z,98886.78
2019-04-07T13:02:55.514Z,98879.09
2019-04-07T13:07:20.713Z,98879.09
2019-04-07T13:11:36.909Z,98876.78
2019-04-07T13:16:05.574Z,98878.00
2019-04-07T13:20:32.067Z,98879.87
2019-04-07T13:24:58.125Z,98871.45
2019-04-07T13:29:30.168Z,98869.39
2019-04-07T13:34:01.086Z,98877.36
2019-04-07T13:38:26.272Z,98871.57
2019-04-07T13:42:44.489Z,98865.30
2019-04-07T13:47:13.288Z,98867.45
2019-04-07T13:51:28.912Z,98869.38
2019-04-07T13:55:55.296Z,98865.73
2019-04-07T14:00:20.263Z,98863.84
2019-04-07T14:04:37.193Z,98870.83
2019-04-07T14:09:04.161Z,98856.59
2019-04-07T14:13:22.080Z,98858.31
2019-04-07T14:17:54.722Z,98864.28
2019-04-07T14:22:13.098Z,98862.38
2019-04-07T14:26:33.448Z,98857.58
2019-04-07T14:30:58.771Z,98855.72
2019-04-07T14:35:27.767Z,98846.26
2019-04-07T14:39:53.450Z,98851.59
2019-04-07T14:44:19.498Z,98851.59
2019-04-07T14:48:34.806Z,98850.82
2019-04-07T14:53:03.626Z,98854.09
2019-04-07T14:57:28.754Z,98851.55
2019-04-07T15:02:01.950Z,98846.44
2019-04-07T15:06:08.822Z,98848.19
2019-04-07T15:10:20.517Z,98853.47
2019-04-07T15:14:31.410Z,98852.19
2019-04-07T15:18:37.094Z,98856.77
2019-04-07T15:22:46.124Z,98857.53
2019-04-07T15:26:52.999Z,98852.59
2019-04-07T15:30:59.865Z,98859.27
2019-04-07T15:35:07.510Z,98859.02
2019-04-07T15:39:16.220Z,98862.80
2019-04-07T15:43:23.162Z,98864.39
2019-04-07T15:47:31.956Z,98858.65
2019-04-07T15:51:38.797Z,98866.78
2019-04-07T15:55:55.445Z,98864.50
2019-04-07T15:59:54.686Z,98869.35
2019-04-07T16:04:01.407Z,98862.73
2019-04-07T16:08:11.556Z,98873.44
2019-04-07T16:12:17.848Z,98875.46
2019-04-07T16:16:26.873Z,98878.09
2019-04-07T16:20:38.760Z,98877.66
2019-04-07T16:24:41.929Z,98880.24
2019-04-07T16:28:49.632Z,98882.27
2019-04-07T16:33:01.926Z,98889.44
2019-04-07T16:37:06.243Z,98889.83
2019-04-07T16:41:15.046Z,98895.75
2019-04-07T16:45:22.408Z,98897.69
2019-04-07T16:49:29.392Z,98897.41
2019-04-07T16:53:37.923Z,98902.47
2019-04-07T16:57:45.082Z,98914.81
2019-04-07T17:01:52.884Z,98910.78
2019-04-07T17:06:02.870Z,98910.87
2019-04-07T17:10:11.098Z,98909.53
2019-04-07T17:14:18.403Z,98921.11
2019-04-07T17:18:41.197Z,98920.62
2019-04-07T17:22:49.398Z,98921.12
2019-04-07T17:26:56.687Z,98927.03
2019-04-07T17:31:07.746Z,98925.61
2019-04-07T17:35:18.898Z,98927.88
2019-04-07T17:39:40.159Z,98927.61
2019-04-07T17:43:57.944Z,98933.75
2019-04-07T17:48:20.294Z,98935.38
2019-04-07T17:52:49.226Z,98941.58
2019-04-07T17:57:22.613Z,98940.53
2019-04-07T18:01:53.461Z,98948.83
2019-04-07T18:06:21.653Z,98953.19
2019-04-07T18:11:20.807Z,98956.73
2019-04-07T18:16:01.695Z,98962.41
2019-04-07T18:20:17.613Z,98967.29
2019-04-07T18:24:37.783Z,98971.28
2019-04-07T18:29:10.594Z,98972.37
2019-04-07T18:33:26.993Z,98981.50
2019-04-07T18:37:52.885Z,98983.95
2019-04-07T18:42:29.232Z,98978.61
2019-04-07T18:47:06.837Z,98988.02
2019-04-07T18:51:31.683Z,98992.60
2019-04-07T18:55:57.921Z,99001.98
2019-04-07T19:00:32.674Z,99004.97
2019-04-07T19:04:50.262Z,99012.18
2019-04-07T19:09:14.201Z,99017.05
2019-04-07T19:13:40.211Z,99019.20
2019-04-07T19:18:05.808Z,99023.23
2019-04-07T19:22:40.343Z,99024.33
2019-04-07T19:27:17.695Z,99029.16
2019-04-07T19:31:32.566Z,99029.45
2019-04-07T19:35:57.525Z,99029.67
2019-04-07T19:41:16.778Z,99032.12
2019-04-07T19:46:15.791Z,99032.91
2019-04-07T19:50:43.237Z,99039.91
2019-04-07T19:55:47.417Z,99031.06
2019-04-07T20:02:21.346Z,99034.81
2019-04-07T20:05:34.157Z,99030.28
2019-04-07T20:10:45.314Z,99032.41
2019-04-07T20:15:42.060Z,99036.72
2019-04-07T20:20:19.646Z,99038.32
2019-04-07T20:25:02.004Z,99036.70
2019-04-07T20:29:28.029Z,99032.43
2019-04-07T20:33:56.819Z,99033.52
2019-04-07T20:38:25.601Z,99029.20
2019-04-07T20:42:46.341Z,99036.70
2019-04-07T20:47:15.859Z,99035.11
2019-04-07T20:51:41.024Z,99036.70
2019-04-07T20:56:13.104Z,99043.11
2019-04-07T21:00:38.194Z,99041.78
2019-04-07T21:05:12.174Z,99043.05
2019-04-07T21:09:43.900Z,99048.19
2019-04-07T21:14:10.008Z,99053.20
2019-04-07T21:18:34.081Z,99053.20
2019-04-07T21:22:50.060Z,99055.59
2019-04-07T21:27:26.700Z,99049.39
2019-04-07T21:31:51.115Z,99064.31
2019-04-07T21:36:09.400Z,99059.48
2019-04-07T21:40:51.287Z,99064.52
2019-04-07T21:45:41.370Z,99063.71
2019-04-07T21:50:05.418Z,99063.15
2019-04-07T21:54:30.737Z,99060.66
2019-04-07T21:58:48.650Z,99067.36
2019-04-07T22:03:11.391Z,99068.88
2019-04-07T22:07:46.350Z,99072.58
2019-04-07T22:11:55.860Z,99078.38
2019-04-07T22:16:04.161Z,99080.28
2019-04-07T22:20:11.324Z,99069.14
2019-04-07T22:24:18.822Z,99072.31
2019-04-07T22:28:28.510Z,99077.16
2019-04-07T22:32:34.229Z,99080.14
2019-04-07T22:36:43.752Z,99083.16
2019-04-07T22:40:50.771Z,99083.99
2019-04-07T22:44:57.824Z,99081.25
2019-04-07T22:49:04.931Z,99086.89
2019-04-07T22:53:11.638Z,99081.92
2019-04-07T22:57:18.322Z,99084.94
2019-04-07T23:01:25.232Z,99096.33
2019-04-07T23:05:32.067Z,99100.09
2019-04-07T23:09:39.115Z,99111.63
2019-04-07T23:13:46.077Z,99110.55
2019-04-07T23:17:53.506Z,99106.77
2019-04-07T23:22:01.133Z,99102.55
2019-04-07T23:26:07.811Z,99104.05
2019-04-07T23:30:17.360Z,99114.41
2019-04-07T23:34:24.233Z,99118.30
2019-04-07T23:38:33.635Z,99111.23
2019-04-07T23:42:40.275Z,99107.33
2019-04-07T23:46:47.696Z,99101.91
2019-04-07T23:50:54.421Z,99102.78
2019-04-07T23:55:02.361Z,99100.79
2019-04-07T23:59:10.493Z,99107.16
